Airfield :







YOU CAN JOIN US ON...

 
LOGIN :

Register | Disclaimer

   EN    FR    IT 

 









Legend :    VFR   Marginal VFR   IFR   Intensive IFR   Very Intensive IFR
Visi :
Ceiling :
>= 8 km
>= 3000ft
5 to 8 km
1000 to 3000 ft
1500m to 5 km
500 to 1000 ft
800 to 1500m
200 to 500 ft
< 800m
< 200 ft
Symbols :   Thunderstorms  Fog  Heavy snow  Heavy precipitations  Wind > 20 kt






- Airport Elevation : 1166 ft


KMPV - Edward F Knapp State

CURRENT METAR :
  • 221051Z AUTO 18004KT 10SM FEW030 BKN035 OVC060 13/12 A2971 RMK AO2 SLP063 T01330117

EXPIRED METARs :
  • 220951Z AUTO 26003KT 10SM FEW030 SCT043 OVC085 12/11 A2971 RMK AO2 RAE12 SLP063 P0000 T01220111

TAF KMPV
Valid from the 22 at 12:00 until the 23 at 12:00 UTC


221135Z 2212/2312 20005KT P6SM BKN060
FM221400 24005KT P6SM OVC015
FM221600 30007KT P6SM BKN028
FM221800 31007KT P6SM OVC035
FM230000 00000KT P6SM BKN027
KZBW FIR / North America



MET'MAP, your aeronautical weather chart ! - Copyright ORBIFLY December 2007 - Disclaimer

ORBIFLY MET'MAP TEAM :

Programming & Development : Alexandra Zaïnal
Concept & original design : Baudouin d'Aumeries
Assistance for programming : Marc-Olivier Méhu
Technical & hardware support : Manuel Goepfert

Contact : metmap@orbifly.com




SOURCES & CREDITS :

   NOAA